createdAt,value
2018-06-11T07:05:58.193Z,264.38
2018-06-11T07:06:58.176Z,163.13
2018-06-11T07:07:58.178Z,675.00
2018-06-11T07:08:58.174Z,714.38
2018-06-11T07:09:58.183Z,736.88
2018-06-11T07:10:58.229Z,736.88
2018-06-11T07:11:58.188Z,697.50
2018-06-11T07:12:58.191Z,680.63
2018-06-11T07:13:58.197Z,703.13
2018-06-11T07:14:58.199Z,703.13
2018-06-11T07:15:58.205Z,663.75
2018-06-11T07:16:58.211Z,652.50
2018-06-11T07:17:58.212Z,658.13
2018-06-11T07:18:58.221Z,652.50
2018-06-11T07:19:58.226Z,663.75
2018-06-11T07:20:58.230Z,658.13
2018-06-11T07:21:58.238Z,652.50
2018-06-11T07:22:58.245Z,618.75
2018-06-11T07:23:58.248Z,551.25
2018-06-11T07:24:58.255Z,500.63
2018-06-11T07:25:58.261Z,478.13
2018-06-11T07:26:58.264Z,461.25
2018-06-11T07:27:58.271Z,466.88
2018-06-11T07:28:58.277Z,495.00
2018-06-11T07:29:58.286Z,500.63
2018-06-11T07:30:58.293Z,478.13
2018-06-11T07:31:58.297Z,472.50
2018-06-11T07:32:58.304Z,483.75
2018-06-11T07:33:58.311Z,495.00
2018-06-11T07:34:58.367Z,511.88
2018-06-11T07:35:58.322Z,534.38
2018-06-11T07:36:58.336Z,556.88
2018-06-11T07:37:58.337Z,585.00
2018-06-11T07:38:58.343Z,641.25
2018-06-11T07:39:58.351Z,697.50
2018-06-11T07:40:58.393Z,759.38
2018-06-11T07:41:58.361Z,787.50
2018-06-11T07:42:58.368Z,810.00
2018-06-11T07:43:58.376Z,804.38
2018-06-11T07:44:58.381Z,742.50
2018-06-11T07:45:58.390Z,675.00
2018-06-11T07:46:58.390Z,624.38
2018-06-11T07:47:58.435Z,596.25
2018-06-11T07:48:58.411Z,528.75
2018-06-11T07:49:58.416Z,466.88
2018-06-11T07:50:58.425Z,466.88
2018-06-11T07:51:58.428Z,517.50
2018-06-11T07:52:58.436Z,562.50
2018-06-11T07:53:58.443Z,545.63
2018-06-11T07:54:58.448Z,511.88
2018-06-11T07:55:58.457Z,466.88
2018-06-11T07:56:58.462Z,421.88
2018-06-11T07:57:58.470Z,393.75
2018-06-11T07:58:58.476Z,393.75
2018-06-11T07:59:58.513Z,405.00
2018-06-11T08:00:58.490Z,405.00
2018-06-11T08:01:58.496Z,393.75
2018-06-11T08:02:58.502Z,382.50
2018-06-11T08:03:58.513Z,393.75
2018-06-11T08:04:58.518Z,421.88
2018-06-11T08:05:58.524Z,438.75
2018-06-11T08:06:58.530Z,427.50
2018-06-11T08:07:58.538Z,416.25
2018-06-11T08:08:58.549Z,393.75
2018-06-11T08:09:58.550Z,376.88
2018-06-11T08:10:58.556Z,371.25
2018-06-11T08:11:58.562Z,382.50
2018-06-11T08:12:58.563Z,410.63
2018-06-11T08:13:58.576Z,433.13
2018-06-11T08:14:58.581Z,438.75
2018-06-11T08:15:58.587Z,427.50
2018-06-11T08:16:58.594Z,416.25
2018-06-11T08:17:58.601Z,433.13
2018-06-11T08:18:58.604Z,444.38
2018-06-11T08:19:58.613Z,444.38
2018-06-11T08:20:58.618Z,438.75
2018-06-11T08:21:58.625Z,438.75
2018-06-11T08:22:58.628Z,427.50
2018-06-11T08:23:58.638Z,410.63
2018-06-11T08:24:58.642Z,399.38
2018-06-11T08:25:58.647Z,405.00
2018-06-11T08:26:58.656Z,399.38
2018-06-11T08:27:58.661Z,399.38
2018-06-11T08:28:58.670Z,410.63
2018-06-11T08:29:58.675Z,410.63
2018-06-11T08:30:58.684Z,421.88
2018-06-11T08:31:58.687Z,416.25
2018-06-11T08:32:58.694Z,416.25
2018-06-11T08:33:58.706Z,421.88
2018-06-11T08:34:58.705Z,438.75
2018-06-11T08:35:58.713Z,461.25
2018-06-11T08:36:58.713Z,489.38
2018-06-11T08:37:58.720Z,528.75
2018-06-11T08:38:58.731Z,562.50
2018-06-11T08:39:58.736Z,596.25
2018-06-11T08:40:58.748Z,641.25
2018-06-11T08:41:58.749Z,686.25
2018-06-11T08:42:58.757Z,731.25
2018-06-11T08:43:58.765Z,725.63
2018-06-11T08:44:58.769Z,680.63
2018-06-11T08:45:58.777Z,618.75
2018-06-11T08:46:58.778Z,624.38
2018-06-11T08:47:58.795Z,708.75
2018-06-11T08:48:58.795Z,793.13
2018-06-11T08:49:58.805Z,770.63
2018-06-11T08:50:58.802Z,725.63
2018-06-11T08:51:58.814Z,658.13
2018-06-11T08:52:58.823Z,601.88
2018-06-11T08:53:58.829Z,613.13
2018-06-11T08:54:58.835Z,635.63
2018-06-11T08:55:58.841Z,590.63
2018-06-11T08:56:58.850Z,517.50
2018-06-11T08:57:58.855Z,545.63
2018-06-11T08:58:58.859Z,590.63
2018-06-11T08:59:58.882Z,607.50
2018-06-11T09:00:58.895Z,596.25
2018-06-11T09:01:58.884Z,562.50
2018-06-11T09:02:58.890Z,511.88
2018-06-11T09:03:58.899Z,478.13
2018-06-11T09:04:58.904Z,461.25
2018-06-11T09:05:58.912Z,478.13
2018-06-11T09:06:58.969Z,506.25
2018-06-11T09:07:58.924Z,540.00
2018-06-11T09:08:58.932Z,585.00
2018-06-11T09:09:58.933Z,658.13
2018-06-11T09:10:58.946Z,765.00
2018-06-11T09:11:58.951Z,855.00
2018-06-11T09:12:58.959Z,916.88
2018-06-11T09:13:58.967Z,928.13
2018-06-11T09:14:59.016Z,916.88
2018-06-11T09:15:58.976Z,832.50
2018-06-11T09:16:58.991Z,781.88
2018-06-11T09:17:59.071Z,781.88
2018-06-11T09:18:59.001Z,821.25
2018-06-11T09:19:59.008Z,900.00
2018-06-11T09:20:59.016Z,950.63
2018-06-11T09:21:59.017Z,990.00
2018-06-11T09:22:59.032Z,995.63
2018-06-11T09:23:59.041Z,995.63
2018-06-11T09:24:59.067Z,1012.50
2018-06-11T09:25:59.060Z,1113.75
2018-06-11T09:26:59.061Z,1254.38
2018-06-11T09:27:59.067Z,1310.63
2018-06-11T09:28:59.075Z,1276.88
2018-06-11T09:29:59.083Z,1220.63
2018-06-11T09:30:59.107Z,1248.75
2018-06-11T09:31:59.099Z,1321.88
2018-06-11T09:32:59.107Z,1355.63
2018-06-11T09:33:59.114Z,1361.25
2018-06-11T09:34:59.123Z,1378.13
2018-06-11T09:35:59.133Z,1400.63
2018-06-11T09:36:59.140Z,1411.88
2018-06-11T09:37:59.146Z,1400.63
2018-06-11T09:38:59.153Z,1406.25
2018-06-11T09:39:59.161Z,1417.50
2018-06-11T09:40:59.166Z,1445.63
2018-06-11T09:41:59.183Z,1428.75
2018-06-11T09:42:59.182Z,1423.13
2018-06-11T09:43:59.249Z,1417.50
2018-06-11T09:44:59.206Z,1423.13
2018-06-11T09:45:59.216Z,1434.38
2018-06-11T09:46:59.226Z,1468.13
2018-06-11T09:47:59.235Z,1524.38
2018-06-11T09:48:59.253Z,1546.88
2018-06-11T09:49:59.252Z,1546.88
2018-06-11T09:50:59.260Z,1473.75
2018-06-11T09:51:59.268Z,1271.25
2018-06-11T09:52:59.274Z,1170.00
2018-06-11T09:53:59.280Z,1181.25
2018-06-11T09:54:59.296Z,1203.75
2018-06-11T09:55:59.309Z,1265.63
2018-06-11T09:56:59.314Z,1282.50
2018-06-11T09:57:59.326Z,1243.13
2018-06-11T09:58:59.333Z,1282.50
2018-06-11T09:59:59.342Z,1231.88
2018-06-11T10:00:59.354Z,1102.50
2018-06-11T10:01:59.362Z,1046.25
2018-06-11T10:02:59.364Z,1063.13
2018-06-11T10:03:59.374Z,1091.25
2018-06-11T10:04:59.390Z,1164.38
2018-06-11T10:05:59.393Z,1164.38
2018-06-11T10:06:59.408Z,1125.00
2018-06-11T10:07:59.419Z,1164.38
2018-06-11T10:08:59.429Z,1226.25
2018-06-11T10:09:59.437Z,1243.13
2018-06-11T10:10:59.444Z,1209.38
2018-06-11T10:11:59.454Z,1170.00
2018-06-11T10:12:59.460Z,1119.38
2018-06-11T10:13:59.473Z,1046.25
2018-06-11T10:14:59.479Z,922.50
2018-06-11T10:15:59.488Z,826.88
2018-06-11T10:16:59.497Z,815.63
2018-06-11T10:17:59.509Z,866.25
2018-06-11T10:18:59.523Z,990.00
2018-06-11T10:19:59.530Z,1136.25
2018-06-11T10:20:59.538Z,1203.75
2018-06-11T10:21:59.546Z,1237.50
2018-06-11T10:22:59.549Z,1305.00
2018-06-11T10:23:59.562Z,1361.25
2018-06-11T10:24:59.574Z,1411.88
2018-06-11T10:25:59.585Z,1411.88
2018-06-11T10:26:59.591Z,1389.38
2018-06-11T10:27:59.601Z,1378.13
2018-06-11T10:28:59.605Z,1361.25
2018-06-11T10:29:59.618Z,1344.38
2018-06-11T10:30:59.628Z,1276.88
2018-06-11T10:31:59.638Z,1231.88
2018-06-11T10:32:59.644Z,1136.25
2018-06-11T10:33:59.656Z,1029.38
2018-06-11T10:34:59.670Z,1006.88
2018-06-11T10:35:59.675Z,1018.13
2018-06-11T10:36:59.759Z,1125.00
2018-06-11T10:37:59.693Z,1203.75
2018-06-11T10:38:59.702Z,1265.63
2018-06-11T10:39:59.716Z,1327.50
2018-06-11T10:40:59.720Z,1355.63
2018-06-11T10:41:59.730Z,1383.75
2018-06-11T10:42:59.736Z,1417.50
2018-06-11T10:43:59.746Z,1473.75
2018-06-11T10:44:59.756Z,1501.88
2018-06-11T10:45:59.761Z,1462.50
2018-06-11T10:46:59.775Z,1479.38
2018-06-11T10:47:59.786Z,1411.88
2018-06-11T10:48:59.793Z,1265.63
2018-06-11T10:49:59.807Z,1192.50
2018-06-11T10:50:59.812Z,1226.25
2018-06-11T10:51:59.824Z,1310.63
2018-06-11T10:52:59.844Z,1327.50
2018-06-11T10:53:59.842Z,1361.25
2018-06-11T10:54:59.850Z,1445.63
2018-06-11T10:55:59.861Z,1473.75
2018-06-11T10:56:59.873Z,1440.00
2018-06-11T10:57:59.918Z,1361.25
2018-06-11T10:58:59.890Z,1299.38
2018-06-11T10:59:59.902Z,1276.88
2018-06-11T11:00:59.916Z,1338.75
2018-06-11T11:01:59.915Z,1400.63
2018-06-11T11:02:59.929Z,1406.25
2018-06-11T11:03:59.943Z,1366.88
2018-06-11T11:04:59.941Z,1395.00
2018-06-11T11:05:59.959Z,1400.63
2018-06-11T11:06:59.968Z,1423.13
2018-06-11T11:07:59.978Z,1372.50
2018-06-11T11:08:59.989Z,1293.75
2018-06-11T11:10:00.000Z,1260.00
2018-06-11T11:11:00.027Z,1293.75
2018-06-11T11:12:00.018Z,1310.63
2018-06-11T11:13:00.027Z,1355.63
2018-06-11T11:14:00.037Z,1361.25
2018-06-11T11:15:00.052Z,1293.75
2018-06-11T11:16:00.051Z,1209.38
2018-06-11T11:17:00.069Z,1136.25
2018-06-11T11:18:00.077Z,1108.13
2018-06-11T11:19:00.088Z,1113.75
2018-06-11T11:20:00.097Z,1141.88
2018-06-11T11:21:00.109Z,1164.38
2018-06-11T11:22:00.118Z,1198.13
2018-06-11T11:23:00.142Z,1181.25
2018-06-11T11:24:00.182Z,1153.13
2018-06-11T11:25:00.146Z,1125.00
2018-06-11T11:26:00.158Z,1113.75
2018-06-11T11:27:00.167Z,1108.13
2018-06-11T11:28:00.172Z,1125.00
2018-06-11T11:29:00.181Z,1113.75
2018-06-11T11:30:00.208Z,1068.75
2018-06-11T11:31:00.203Z,1029.38
2018-06-11T11:32:00.213Z,990.00
2018-06-11T11:33:00.226Z,984.38
2018-06-11T11:34:00.233Z,1119.38
2018-06-11T11:35:00.243Z,1276.88
2018-06-11T11:36:00.253Z,1316.25
2018-06-11T11:37:00.262Z,1293.75
2018-06-11T11:38:00.274Z,1237.50
2018-06-11T11:39:00.278Z,1220.63
2018-06-11T11:40:00.289Z,1260.00
2018-06-11T11:41:00.305Z,1254.38
2018-06-11T11:42:00.315Z,1271.25
2018-06-11T11:43:00.318Z,1243.13
2018-06-11T11:44:00.333Z,1226.25
2018-06-11T11:45:00.336Z,1243.13
2018-06-11T11:46:00.347Z,1248.75
2018-06-11T11:47:00.356Z,1254.38
2018-06-11T11:48:00.367Z,1231.88
2018-06-11T11:49:00.376Z,1198.13
2018-06-11T11:50:00.387Z,1192.50
2018-06-11T11:51:00.397Z,1215.00
2018-06-11T11:52:00.400Z,1299.38
2018-06-11T11:53:00.414Z,1333.13
2018-06-11T11:54:00.420Z,1344.38
2018-06-11T11:55:00.434Z,1350.00
2018-06-11T11:56:00.443Z,1372.50
2018-06-11T11:57:00.453Z,1440.00
2018-06-11T11:58:00.465Z,1479.38
2018-06-11T11:59:00.464Z,1490.63
2018-06-11T12:00:00.483Z,1485.00
2018-06-11T12:01:00.496Z,1451.25
2018-06-11T12:02:00.503Z,1428.75
2018-06-11T12:03:00.511Z,1417.50
2018-06-11T12:04:00.541Z,1350.00
2018-06-11T12:05:00.533Z,1260.00
2018-06-11T12:06:00.541Z,1147.50
2018-06-11T12:07:00.553Z,1091.25
2018-06-11T12:08:00.564Z,1136.25
2018-06-11T12:09:00.572Z,1147.50
2018-06-11T12:10:00.580Z,1147.50
2018-06-11T12:11:00.594Z,1125.00
2018-06-11T12:12:00.604Z,1080.00
2018-06-11T12:13:00.613Z,1063.13
2018-06-11T12:14:00.626Z,1068.75
2018-06-11T12:15:00.632Z,1125.00
2018-06-11T12:16:00.644Z,1192.50
2018-06-11T12:17:00.653Z,1175.63
2018-06-11T12:18:00.665Z,1164.38
2018-06-11T12:19:00.715Z,1181.25
2018-06-11T12:20:00.681Z,1175.63
2018-06-11T12:21:00.694Z,1192.50
2018-06-11T12:22:00.710Z,1248.75
2018-06-11T12:23:00.716Z,1310.63
2018-06-11T12:24:00.726Z,1389.38
2018-06-11T12:25:00.734Z,1496.25
2018-06-11T12:26:00.744Z,1580.63
2018-06-11T12:27:00.754Z,1631.25
2018-06-11T12:28:00.761Z,1580.63
2018-06-11T12:29:00.777Z,1473.75
2018-06-11T12:30:00.786Z,1231.88
2018-06-11T12:31:00.794Z,1125.00
2018-06-11T12:32:00.805Z,1175.63
2018-06-11T12:33:00.821Z,1254.38
2018-06-11T12:34:00.824Z,1383.75
2018-06-11T12:35:00.835Z,1440.00
2018-06-11T12:36:00.842Z,1513.13
2018-06-11T12:37:00.856Z,1535.63
2018-06-11T12:38:00.868Z,1428.75
2018-06-11T12:39:00.874Z,1440.00
2018-06-11T12:40:00.885Z,1434.38
2018-06-11T12:41:00.895Z,1485.00
2018-06-11T12:42:00.904Z,1417.50
2018-06-11T12:43:00.910Z,1411.88
2018-06-11T12:44:00.929Z,1428.75
2018-06-11T12:45:00.938Z,1479.38
2018-06-11T12:46:00.946Z,1479.38
2018-06-11T12:47:00.954Z,1479.38
2018-06-11T12:48:00.968Z,1456.88
2018-06-11T12:49:00.975Z,1451.25
2018-06-11T12:50:00.988Z,1456.88
2018-06-11T12:51:00.999Z,1440.00
2018-06-11T12:52:01.010Z,1434.38
2018-06-11T12:53:01.021Z,1428.75
2018-06-11T12:54:01.030Z,1423.13
2018-06-11T12:55:01.044Z,1428.75
2018-06-11T12:56:01.049Z,1428.75
2018-06-11T12:57:01.065Z,1423.13
2018-06-11T12:58:01.073Z,1440.00
2018-06-11T12:59:01.081Z,1541.25
2018-06-11T13:00:01.093Z,1485.00
2018-06-11T13:01:01.101Z,1417.50
2018-06-11T13:02:01.112Z,1383.75
2018-06-11T13:03:01.124Z,1321.88
2018-06-11T13:04:01.142Z,1282.50
2018-06-11T13:05:01.146Z,1265.63
2018-06-11T13:06:01.157Z,1276.88
2018-06-11T13:07:01.168Z,1288.13
2018-06-11T13:08:01.180Z,1276.88
2018-06-11T13:09:01.191Z,1276.88
2018-06-11T13:10:01.202Z,1299.38
2018-06-11T13:11:01.209Z,1355.63
2018-06-11T13:12:01.218Z,1501.88
2018-06-11T13:13:01.227Z,1766.25
2018-06-11T13:14:01.305Z,1873.13
2018-06-11T13:15:01.255Z,1687.50
2018-06-11T13:16:01.266Z,1575.00
2018-06-11T13:17:01.275Z,1501.88
2018-06-11T13:18:01.286Z,1597.50
2018-06-11T13:19:01.295Z,1693.13
2018-06-11T13:20:01.302Z,1687.50
2018-06-11T13:21:01.322Z,1732.50
2018-06-11T13:22:01.353Z,1710.00
2018-06-11T13:23:01.336Z,1648.13
2018-06-11T13:24:01.349Z,1507.50
2018-06-11T13:25:01.360Z,1445.63
2018-06-11T13:26:01.367Z,1501.88
2018-06-11T13:27:01.380Z,1479.38
2018-06-11T13:28:01.396Z,1507.50
2018-06-11T13:29:01.408Z,1456.88
2018-06-11T13:30:01.415Z,1535.63
2018-06-11T13:31:01.427Z,1648.13
2018-06-11T13:32:01.436Z,1636.88
2018-06-11T13:33:01.448Z,1631.25
2018-06-11T13:34:01.458Z,1653.75
2018-06-11T13:35:01.471Z,1591.88
2018-06-11T13:36:01.482Z,1580.63
2018-06-11T13:37:01.534Z,1546.88
2018-06-11T13:38:01.504Z,1518.75
2018-06-11T13:39:01.512Z,1518.75
2018-06-11T13:40:01.525Z,1541.25
2018-06-11T13:41:01.534Z,1552.50
2018-06-11T13:42:01.548Z,1608.75
2018-06-11T13:43:01.579Z,1636.88
2018-06-11T13:44:01.577Z,1608.75
2018-06-11T13:45:01.580Z,1670.63
2018-06-11T13:46:01.589Z,1620.00
2018-06-11T13:47:01.599Z,1496.25
2018-06-11T13:48:01.605Z,1395.00
2018-06-11T13:49:01.623Z,1400.63
2018-06-11T13:50:01.635Z,1473.75
2018-06-11T13:51:01.648Z,1580.63
2018-06-11T13:52:01.715Z,1704.38
2018-06-11T13:53:01.669Z,1895.63
2018-06-11T13:54:01.682Z,1507.50
2018-06-11T13:55:01.692Z,1395.00
2018-06-11T13:56:01.702Z,1344.38
2018-06-11T13:57:01.767Z,1333.13
2018-06-11T13:58:01.726Z,1507.50
2018-06-11T13:59:01.745Z,1867.50
2018-06-11T14:00:01.748Z,2272.50
2018-06-11T14:01:01.757Z,2401.88
2018-06-11T14:02:01.769Z,2233.13
2018-06-11T14:03:01.781Z,2221.88
2018-06-11T14:04:01.789Z,2036.25
2018-06-11T14:05:01.804Z,1676.25
2018-06-11T14:06:01.810Z,1580.63
2018-06-11T14:07:01.824Z,1316.25
2018-06-11T14:08:01.852Z,1305.00
2018-06-11T14:09:01.850Z,1293.75
2018-06-11T14:10:01.860Z,1991.25
2018-06-11T14:11:01.875Z,2092.50
2018-06-11T14:12:01.909Z,2013.75
2018-06-11T14:13:01.894Z,1715.63
2018-06-11T14:14:01.906Z,2064.38
2018-06-11T14:15:01.919Z,1749.38
2018-06-11T14:16:01.931Z,1901.25
2018-06-11T14:17:01.939Z,2261.25
2018-06-11T14:18:01.954Z,2362.50
2018-06-11T14:19:01.968Z,2401.88
2018-06-11T14:20:01.983Z,2351.25
2018-06-11T14:21:01.991Z,2328.75
2018-06-11T14:22:02.006Z,2430.00
2018-06-11T14:23:02.015Z,2463.75
2018-06-11T14:24:02.042Z,2345.63
2018-06-11T14:25:02.090Z,2120.63
2018-06-11T14:26:02.053Z,1496.25
2018-06-11T14:27:02.064Z,1501.88
2018-06-11T14:28:02.077Z,1653.75
2018-06-11T14:29:02.090Z,1811.25
2018-06-11T14:30:02.102Z,2508.75
2018-06-11T14:31:02.162Z,2373.75
2018-06-11T14:32:02.133Z,1676.25
2018-06-11T14:33:02.142Z,1569.38
2018-06-11T14:34:02.153Z,1260.00
2018-06-11T14:35:02.166Z,1209.38
2018-06-11T14:36:02.178Z,1237.50
2018-06-11T14:37:02.184Z,1350.00
2018-06-11T14:38:02.202Z,1535.63
2018-06-11T14:39:02.213Z,1451.25
2018-06-11T14:40:02.228Z,1350.00
2018-06-11T14:41:02.248Z,1316.25
2018-06-11T14:42:02.255Z,1366.88
2018-06-11T14:43:02.260Z,1445.63
2018-06-11T14:44:02.274Z,1575.00
2018-06-11T14:45:02.283Z,2323.13
2018-06-11T14:46:02.295Z,2385.00
2018-06-11T14:47:02.308Z,2311.88
2018-06-11T14:48:02.319Z,2227.50
2018-06-11T14:49:02.331Z,2019.38
2018-06-11T14:50:02.337Z,1867.50
2018-06-11T14:51:02.381Z,1704.38
2018-06-11T14:52:02.360Z,1603.13
2018-06-11T14:53:02.377Z,1518.75
2018-06-11T14:54:02.389Z,1456.88
2018-06-11T14:55:02.403Z,1136.25
2018-06-11T14:56:02.410Z,1040.63
2018-06-11T14:57:02.419Z,933.75
2018-06-11T14:58:02.458Z,894.38
2018-06-11T14:59:02.446Z,883.13
2018-06-11T15:00:02.458Z,916.88
2018-06-11T15:01:02.470Z,1113.75
2018-06-11T15:02:02.515Z,1192.50
2018-06-11T15:03:02.506Z,1237.50
2018-06-11T15:04:02.513Z,1215.00
2018-06-11T15:05:02.519Z,1186.88
2018-06-11T15:06:02.529Z,1170.00
2018-06-11T15:07:02.537Z,1125.00
2018-06-11T15:08:02.549Z,1057.50
2018-06-11T15:09:02.565Z,1001.25
2018-06-11T15:10:02.568Z,995.63
2018-06-11T15:11:02.582Z,967.50
2018-06-11T15:12:02.593Z,967.50
2018-06-11T15:13:02.602Z,984.38
2018-06-11T15:14:02.618Z,995.63
2018-06-11T15:15:02.626Z,1001.25
2018-06-11T15:16:02.637Z,1006.88
2018-06-11T15:17:02.652Z,995.63
2018-06-11T15:18:02.664Z,973.13
2018-06-11T15:19:02.673Z,961.88
2018-06-11T15:20:02.683Z,945.00
2018-06-11T15:21:02.696Z,928.13
2018-06-11T15:22:02.701Z,911.25
2018-06-11T15:23:02.709Z,911.25
2018-06-11T15:24:02.718Z,900.00
2018-06-11T15:25:02.737Z,905.63
2018-06-11T15:26:02.744Z,933.75
2018-06-11T15:27:02.756Z,956.25
2018-06-11T15:28:02.768Z,961.88
2018-06-11T15:29:02.784Z,990.00
2018-06-11T15:30:02.788Z,1001.25
2018-06-11T15:31:02.800Z,1018.13
2018-06-11T15:32:02.808Z,1029.38
2018-06-11T15:33:02.823Z,1035.00
2018-06-11T15:34:02.830Z,1040.63
2018-06-11T15:35:02.858Z,1006.88
2018-06-11T15:36:02.848Z,973.13
2018-06-11T15:37:02.873Z,978.75
2018-06-11T15:38:02.865Z,956.25
2018-06-11T15:39:02.881Z,956.25
2018-06-11T15:40:02.889Z,967.50
2018-06-11T15:41:02.896Z,961.88
2018-06-11T15:42:02.910Z,950.63
2018-06-11T15:43:02.917Z,939.38
2018-06-11T15:44:02.931Z,916.88
2018-06-11T15:45:02.936Z,900.00
2018-06-11T15:46:02.954Z,883.13
2018-06-11T15:47:02.957Z,877.50
2018-06-11T15:48:02.971Z,866.25
2018-06-11T15:49:02.985Z,866.25
2018-06-11T15:50:02.994Z,866.25
2018-06-11T15:51:03.001Z,855.00
2018-06-11T15:52:03.010Z,838.13
2018-06-11T15:53:03.021Z,815.63
2018-06-11T15:54:03.032Z,804.38
2018-06-11T15:55:03.038Z,793.13
2018-06-11T15:56:03.050Z,776.25
2018-06-11T15:57:03.065Z,748.13
2018-06-11T15:58:03.068Z,725.63
2018-06-11T15:59:03.074Z,703.13
2018-06-11T16:00:03.091Z,691.88
2018-06-11T16:01:03.093Z,697.50
2018-06-11T16:02:03.110Z,703.13
2018-06-11T16:03:03.118Z,714.38
2018-06-11T16:04:03.120Z,725.63
2018-06-11T16:05:03.151Z,731.25
2018-06-11T16:06:03.143Z,725.63
2018-06-11T16:07:03.154Z,720.00
2018-06-11T16:08:03.176Z,708.75
2018-06-11T16:09:03.177Z,703.13
2018-06-11T16:10:03.185Z,708.75
2018-06-11T16:11:03.192Z,708.75
2018-06-11T16:12:03.241Z,714.38
2018-06-11T16:13:03.211Z,714.38
2018-06-11T16:14:03.225Z,708.75
2018-06-11T16:15:03.233Z,697.50
2018-06-11T16:16:03.242Z,680.63
2018-06-11T16:17:03.250Z,663.75
2018-06-11T16:18:03.263Z,641.25
2018-06-11T16:19:03.272Z,630.00
2018-06-11T16:20:03.278Z,630.00
2018-06-11T16:21:03.282Z,613.13
2018-06-11T16:22:03.299Z,607.50
2018-06-11T16:23:03.306Z,596.25
2018-06-11T16:24:03.314Z,585.00
2018-06-11T16:25:03.324Z,585.00
2018-06-11T16:26:03.332Z,579.38
2018-06-11T16:27:03.341Z,573.75
2018-06-11T16:28:03.350Z,568.13
2018-06-11T16:29:03.359Z,562.50
2018-06-11T16:30:03.371Z,556.88
2018-06-11T16:31:03.381Z,545.63
2018-06-11T16:32:03.387Z,540.00
2018-06-11T16:33:03.400Z,534.38
2018-06-11T16:34:03.403Z,528.75
2018-06-11T16:35:03.410Z,528.75
2018-06-11T16:36:03.429Z,517.50
2018-06-11T16:37:03.457Z,511.88
2018-06-11T16:38:03.453Z,511.88
2018-06-11T16:39:03.451Z,517.50
2018-06-11T16:40:03.472Z,517.50
2018-06-11T16:41:03.463Z,523.13
2018-06-11T16:42:03.498Z,534.38
2018-06-11T16:43:03.539Z,545.63
2018-06-11T16:44:03.491Z,545.63
2018-06-11T16:45:03.499Z,545.63
2018-06-11T16:46:03.507Z,545.63
2018-06-11T16:47:03.518Z,551.25
2018-06-11T16:48:03.523Z,551.25
2018-06-11T16:49:03.541Z,551.25
2018-06-11T16:50:03.542Z,551.25
2018-06-11T16:51:03.548Z,562.50
2018-06-11T16:52:03.556Z,568.13
2018-06-11T16:53:03.564Z,579.38
2018-06-11T16:54:03.572Z,590.63
2018-06-11T16:55:03.581Z,601.88
2018-06-11T16:56:03.584Z,630.00
2018-06-11T16:57:03.597Z,641.25
2018-06-11T16:58:03.607Z,641.25
2018-06-11T16:59:03.618Z,607.50
2018-06-11T17:00:03.625Z,585.00
2018-06-11T17:01:03.637Z,579.38
2018-06-11T17:02:03.643Z,573.75
2018-06-11T17:03:03.645Z,545.63
2018-06-11T17:04:03.656Z,528.75
2018-06-11T17:05:03.669Z,511.88
2018-06-11T17:06:03.674Z,500.63
2018-06-11T17:07:03.683Z,495.00
2018-06-11T17:08:03.696Z,495.00
2018-06-11T17:09:03.700Z,489.38
2018-06-11T17:10:03.701Z,489.38
2018-06-11T17:11:03.716Z,489.38
2018-06-11T17:12:03.740Z,500.63
2018-06-11T17:13:03.733Z,545.63
2018-06-11T17:14:03.740Z,607.50
2018-06-11T17:15:03.743Z,635.63
2018-06-11T17:16:03.760Z,618.75
2018-06-11T17:17:03.763Z,607.50
2018-06-11T17:18:03.772Z,568.13
2018-06-11T17:19:03.783Z,534.38
2018-06-11T17:20:03.789Z,506.25
2018-06-11T17:21:03.803Z,472.50
2018-06-11T17:22:03.805Z,444.38
2018-06-11T17:23:03.809Z,433.13
2018-06-11T17:24:03.822Z,433.13
2018-06-11T17:25:03.822Z,427.50
2018-06-11T17:26:03.839Z,427.50
2018-06-11T17:27:03.853Z,416.25
2018-06-11T17:28:03.846Z,388.13
2018-06-11T17:29:03.880Z,360.00
2018-06-11T17:30:03.865Z,354.38
2018-06-11T17:31:03.878Z,337.50
2018-06-11T17:32:03.889Z,331.88
2018-06-11T17:33:03.892Z,326.25
2018-06-11T17:34:03.901Z,326.25
2018-06-11T17:35:03.909Z,331.88
2018-06-11T17:36:03.914Z,326.25
2018-06-11T17:37:03.918Z,326.25
2018-06-11T17:38:03.930Z,326.25
2018-06-11T17:39:03.936Z,331.88
2018-06-11T17:40:03.944Z,337.50
2018-06-11T17:41:03.953Z,331.88
2018-06-11T17:42:03.962Z,331.88
2018-06-11T17:43:03.970Z,331.88
2018-06-11T17:44:03.981Z,326.25
2018-06-11T17:45:03.984Z,315.00
2018-06-11T17:46:03.994Z,309.38
2018-06-11T17:47:03.999Z,303.75
2018-06-11T17:48:04.005Z,298.13
2018-06-11T17:49:04.014Z,298.13
2018-06-11T17:50:04.024Z,298.13
2018-06-11T17:51:04.029Z,292.50
2018-06-11T17:52:04.044Z,292.50
2018-06-11T17:53:04.050Z,292.50
2018-06-11T17:54:04.054Z,286.88
2018-06-11T17:55:04.058Z,275.63
2018-06-11T17:56:04.068Z,270.00
2018-06-11T17:57:04.080Z,253.13
2018-06-11T17:58:04.080Z,236.25
2018-06-11T17:59:04.114Z,213.75
2018-06-11T18:00:04.096Z,191.25
2018-06-11T18:01:04.105Z,174.38
2018-06-11T18:02:04.112Z,157.50
2018-06-11T18:03:04.118Z,146.25
2018-06-11T18:04:04.127Z,135.00
2018-06-11T18:05:04.131Z,106.88
2018-06-11T18:06:04.146Z,95.63
2018-06-11T18:07:04.149Z,78.75
2018-06-11T18:08:04.148Z,67.50
2018-06-11T18:09:04.155Z,56.25
2018-06-11T18:10:04.163Z,56.25
2018-06-11T18:11:04.171Z,56.25
2018-06-11T18:12:04.182Z,56.25
2018-06-11T18:13:04.206Z,56.25
2018-06-11T18:14:04.196Z,56.25
2018-06-11T18:15:04.201Z,56.25
2018-06-11T18:16:04.210Z,56.25
2018-06-11T18:17:04.217Z,50.63
2018-06-11T18:18:04.227Z,50.63
2018-06-11T18:19:04.223Z,50.63
2018-06-11T18:20:04.242Z,50.63
2018-06-11T18:21:04.245Z,45.00
2018-06-11T18:22:04.254Z,45.00
2018-06-11T18:23:04.251Z,45.00
2018-06-11T18:24:04.265Z,50.63
2018-06-11T18:25:04.272Z,50.63
2018-06-11T18:26:04.279Z,50.63
2018-06-11T18:27:04.283Z,50.63
2018-06-11T18:28:04.291Z,56.25
2018-06-11T18:29:04.298Z,56.25
2018-06-11T18:30:04.303Z,56.25
2018-06-11T18:31:04.312Z,56.25
2018-06-11T18:32:04.317Z,50.63
2018-06-11T18:33:04.320Z,50.63
2018-06-11T18:34:04.379Z,45.00
2018-06-11T18:35:04.334Z,45.00
2018-06-11T18:36:04.345Z,45.00
2018-06-11T18:37:04.351Z,45.00
2018-06-11T18:38:04.360Z,45.00
2018-06-11T18:39:04.364Z,50.63
2018-06-11T18:40:04.389Z,50.63
2018-06-11T18:41:04.383Z,50.63
2018-06-11T18:42:04.469Z,56.25
2018-06-11T18:43:04.399Z,56.25
2018-06-11T18:44:04.397Z,50.63
2018-06-11T18:45:04.397Z,50.63
2018-06-11T18:46:04.412Z,50.63
2018-06-11T18:47:04.417Z,45.00
2018-06-11T18:48:04.420Z,45.00
2018-06-11T18:49:04.431Z,39.38
2018-06-11T18:50:04.431Z,39.38
2018-06-11T18:51:04.439Z,39.38
2018-06-11T18:52:04.451Z,45.00
2018-06-11T18:53:04.450Z,45.00
2018-06-11T18:54:04.460Z,45.00
2018-06-11T18:55:04.464Z,45.00
2018-06-11T18:56:04.473Z,45.00
2018-06-11T18:57:04.483Z,39.38
2018-06-11T18:58:04.487Z,39.38
2018-06-11T18:59:04.493Z,33.75
2018-06-11T19:00:04.502Z,33.75
2018-06-11T19:01:04.506Z,28.13
2018-06-11T19:02:04.514Z,28.13
2018-06-11T19:03:04.518Z,28.13
2018-06-11T19:04:04.527Z,28.13
2018-06-11T19:05:04.532Z,22.50
2018-06-11T19:06:04.541Z,22.50
2018-06-11T19:07:04.544Z,16.88
2018-06-11T19:08:04.547Z,16.88
2018-06-11T19:09:04.556Z,16.88
2018-06-11T19:10:04.566Z,16.88
2018-06-11T19:11:04.563Z,11.25
2018-06-11T19:12:04.575Z,11.25
2018-06-11T19:13:04.582Z,11.25
2018-06-11T19:14:04.588Z,11.25
2018-06-11T19:15:04.593Z,11.25
2018-06-11T19:16:04.596Z,11.25
2018-06-11T19:17:04.605Z,11.25
2018-06-11T19:18:04.611Z,5.63
2018-06-11T19:19:04.644Z,5.63
2018-06-11T19:20:04.628Z,5.63
2018-06-11T19:21:04.628Z,5.63
2018-06-11T19:22:04.636Z,5.63
2018-06-11T19:23:04.640Z,5.63
2018-06-11T19:24:04.645Z,5.63
2018-06-11T19:25:04.653Z,5.63
2018-06-11T19:26:04.660Z,5.63